SBPB/PHB METAR and TAF weather

Enter ICAO airport designator
Station Type Date Time Source
SBPB METAR 2020/12/04 20:45 UTC NOAA

SBPB 042045Z /////KT 9999 FEW020 SCT100 29/24 Q1008


Station Type Date Time Source
SBPB Decoded METAR 2020/12/04 20:45 UTC NOAA

Parnaiba Aeroporto , Brazil (SBPB) 02-55S 041-45W
Dec 04, 2020 - 03:45 PM EST / 2020.12.04 2045 UTC
Visibility: greater than 7 mile(s):0
Sky conditions: partly cloudy
Temperature: 84 F (29 C)
Dew Point: 75 F (24 C)
Relative Humidity: 74%
Pressure (altimeter): 29.77 in. Hg (1008 hPa)
ob: SBPB 042045Z /////KT 9999 FEW020 SCT100 29/24 Q1008
cycle: 21

Station Type Date Time Source
SBPB TAF 2020/12/05 18:06 UTC NOAA

TAF SBPB 051600Z 0518/0606 07012KT 9999 FEW020 TX31/0518Z TN25/0606Z
RMK PHC

Example: see airport list